sensor_id;sensor_type;location;lat;lon;timestamp;pressure;altitude;pressure_sealevel;temperature;humidity
41624;BME280;27319;50.306;18.926;2024-03-17T00:02:15;98595.84;;;7.00;92.18
41624;BME280;27319;50.306;18.926;2024-03-17T00:05:36;98597.41;;;7.01;92.03
41624;BME280;27319;50.306;18.926;2024-03-17T00:09:36;98594.00;;;6.85;92.27
41624;BME280;27319;50.306;18.926;2024-03-17T00:13:37;98601.22;;;7.00;92.12
41624;BME280;27319;50.306;18.926;2024-03-17T00:17:38;98608.00;;;7.13;91.51
41624;BME280;27319;50.306;18.926;2024-03-17T00:21:39;98609.47;;;6.68;93.08
41624;BME280;27319;50.306;18.926;2024-03-17T00:25:40;98621.34;;;6.87;91.80
41624;BME280;27319;50.306;18.926;2024-03-17T00:29:40;98619.66;;;6.79;92.92
41624;BME280;27319;50.306;18.926;2024-03-17T00:33:41;98614.78;;;6.84;93.04
41624;BME280;27319;50.306;18.926;2024-03-17T00:37:42;98642.72;;;6.60;93.55
41624;BME280;27319;50.306;18.926;2024-03-17T00:41:45;98667.53;;;6.35;92.46
41624;BME280;27319;50.306;18.926;2024-03-17T00:45:52;98651.63;;;5.82;93.52
41624;BME280;27319;50.306;18.926;2024-03-17T00:49:53;98661.03;;;5.88;92.56
41624;BME280;27319;50.306;18.926;2024-03-17T00:53:54;98665.72;;;5.91;91.72
41624;BME280;27319;50.306;18.926;2024-03-17T00:57:55;98674.75;;;5.99;91.57
41624;BME280;27319;50.306;18.926;2024-03-17T01:01:55;98675.22;;;5.73;92.18
41624;BME280;27319;50.306;18.926;2024-03-17T01:05:59;98676.16;;;5.81;92.22
41624;BME280;27319;50.306;18.926;2024-03-17T01:10:00;98672.25;;;6.06;90.80
41624;BME280;27319;50.306;18.926;2024-03-17T01:14:01;98681.22;;;5.82;90.38
41624;BME280;27319;50.306;18.926;2024-03-17T01:18:02;98674.09;;;5.74;91.98
41624;BME280;27319;50.306;18.926;2024-03-17T01:22:03;98678.31;;;5.87;91.64
41624;BME280;27319;50.306;18.926;2024-03-17T01:26:03;98681.00;;;5.87;91.74
41624;BME280;27319;50.306;18.926;2024-03-17T01:30:04;98677.94;;;5.89;91.80
41624;BME280;27319;50.306;18.926;2024-03-17T01:34:05;98676.72;;;5.86;92.20
41624;BME280;27319;50.306;18.926;2024-03-17T01:38:06;98673.03;;;6.07;91.58
41624;BME280;27319;50.306;18.926;2024-03-17T01:42:07;98676.53;;;5.79;91.97
41624;BME280;27319;50.306;18.926;2024-03-17T01:45:48;98683.75;;;5.91;90.76
41624;BME280;27319;50.306;18.926;2024-03-17T01:48:49;98682.22;;;5.62;91.69
41624;BME280;27319;50.306;18.926;2024-03-17T01:52:10;98678.22;;;5.56;92.25
41624;BME280;27319;50.306;18.926;2024-03-17T01:56:11;98683.03;;;5.78;90.80
41624;BME280;27319;50.306;18.926;2024-03-17T01:59:51;98685.63;;;5.59;90.40
41624;BME280;27319;50.306;18.926;2024-03-17T02:02:52;98690.22;;;5.59;90.22
41624;BME280;27319;50.306;18.926;2024-03-17T02:06:13;98687.13;;;5.44;90.16
41624;BME280;27319;50.306;18.926;2024-03-17T02:10:14;98685.91;;;5.42;90.84
41624;BME280;27319;50.306;18.926;2024-03-17T02:13:56;98695.09;;;5.41;90.94
41624;BME280;27319;50.306;18.926;2024-03-17T02:16:57;98690.03;;;5.24;92.20
41624;BME280;27319;50.306;18.926;2024-03-17T02:20:18;98688.84;;;5.37;90.28
41624;BME280;27319;50.306;18.926;2024-03-17T02:24:37;98690.63;;;5.33;91.04
41624;BME280;27319;50.306;18.926;2024-03-17T02:28:40;98686.31;;;5.28;90.45
41624;BME280;27319;50.306;18.926;2024-03-17T02:32:39;98694.22;;;5.09;92.69
41624;BME280;27319;50.306;18.926;2024-03-17T02:36:39;98684.66;;;5.24;89.11
41624;BME280;27319;50.306;18.926;2024-03-17T02:40:40;98683.28;;;5.30;89.14
41624;BME280;27319;50.306;18.926;2024-03-17T02:44:41;98701.44;;;5.21;88.25
41624;BME280;27319;50.306;18.926;2024-03-17T02:48:42;98709.53;;;5.08;89.11
41624;BME280;27319;50.306;18.926;2024-03-17T02:52:43;98715.56;;;5.05;87.88
41624;BME280;27319;50.306;18.926;2024-03-17T02:56:44;98726.53;;;5.12;87.27
41624;BME280;27319;50.306;18.926;2024-03-17T03:00:44;98726.47;;;4.85;87.55
41624;BME280;27319;50.306;18.926;2024-03-17T03:04:45;98731.75;;;4.81;87.32
41624;BME280;27319;50.306;18.926;2024-03-17T03:08:46;98739.59;;;4.62;88.19
41624;BME280;27319;50.306;18.926;2024-03-17T03:12:47;98741.16;;;4.63;85.15
41624;BME280;27319;50.306;18.926;2024-03-17T03:16:48;98746.75;;;4.46;85.10
41624;BME280;27319;50.306;18.926;2024-03-17T03:20:52;98745.53;;;4.55;85.27
41624;BME280;27319;50.306;18.926;2024-03-17T03:24:55;98752.44;;;4.44;85.96
41624;BME280;27319;50.306;18.926;2024-03-17T03:27:59;98754.56;;;4.39;86.48
41624;BME280;27319;50.306;18.926;2024-03-17T03:31:00;98756.34;;;4.34;84.51
41624;BME280;27319;50.306;18.926;2024-03-17T03:34:02;98767.28;;;4.29;85.86
41624;BME280;27319;50.306;18.926;2024-03-17T03:37:24;98772.22;;;4.27;84.90
41624;BME280;27319;50.306;18.926;2024-03-17T03:41:13;98776.56;;;4.20;84.04
41624;BME280;27319;50.306;18.926;2024-03-17T03:45:11;98769.41;;;4.24;85.42
41624;BME280;27319;50.306;18.926;2024-03-17T03:49:12;98771.81;;;3.92;85.08
41624;BME280;27319;50.306;18.926;2024-03-17T03:53:13;98784.44;;;3.92;83.83
41624;BME280;27319;50.306;18.926;2024-03-17T03:57:14;98781.31;;;4.02;84.46
41624;BME280;27319;50.306;18.926;2024-03-17T04:01:14;98780.44;;;4.10;84.09
41624;BME280;27319;50.306;18.926;2024-03-17T04:05:15;98786.97;;;3.88;82.08
41624;BME280;27319;50.306;18.926;2024-03-17T04:09:19;98789.50;;;3.73;82.64
41624;BME280;27319;50.306;18.926;2024-03-17T04:13:21;98798.28;;;3.94;82.22
41624;BME280;27319;50.306;18.926;2024-03-17T04:17:02;98806.81;;;3.54;82.23
41624;BME280;27319;50.306;18.926;2024-03-17T04:20:05;98803.78;;;3.77;80.09
41624;BME280;27319;50.306;18.926;2024-03-17T04:23:09;98806.88;;;3.46;83.06
41624;BME280;27319;50.306;18.926;2024-03-17T04:26:29;98807.53;;;3.64;82.21
41624;BME280;27319;50.306;18.926;2024-03-17T04:30:30;98813.28;;;3.33;81.92
41624;BME280;27319;50.306;18.926;2024-03-17T04:34:33;98807.53;;;3.64;81.00
41624;BME280;27319;50.306;18.926;2024-03-17T04:38:14;98807.13;;;3.53;82.17
41624;BME280;27319;50.306;18.926;2024-03-17T04:42:15;98821.78;;;3.55;81.07
41624;BME280;27319;50.306;18.926;2024-03-17T04:46:23;98815.44;;;3.39;82.80
41624;BME280;27319;50.306;18.926;2024-03-17T04:50:24;98819.94;;;3.47;83.72
41624;BME280;27319;50.306;18.926;2024-03-17T04:54:26;98822.78;;;3.30;83.65
41624;BME280;27319;50.306;18.926;2024-03-17T04:58:27;98822.31;;;3.28;84.45
41624;BME280;27319;50.306;18.926;2024-03-17T05:02:27;98825.03;;;3.40;85.01
41624;BME280;27319;50.306;18.926;2024-03-17T05:06:29;98828.81;;;3.39;85.09
41624;BME280;27319;50.306;18.926;2024-03-17T05:10:33;98829.50;;;3.36;85.54
41624;BME280;27319;50.306;18.926;2024-03-17T05:14:35;98836.47;;;3.29;86.11
41624;BME280;27319;50.306;18.926;2024-03-17T05:18:36;98838.00;;;3.38;86.34
41624;BME280;27319;50.306;18.926;2024-03-17T05:22:36;98833.00;;;3.28;86.73
41624;BME280;27319;50.306;18.926;2024-03-17T05:26:37;98835.88;;;3.23;86.96
41624;BME280;27319;50.306;18.926;2024-03-17T05:30:38;98844.13;;;3.39;86.83
41624;BME280;27319;50.306;18.926;2024-03-17T05:34:39;98849.88;;;3.49;86.23
41624;BME280;27319;50.306;18.926;2024-03-17T05:38:40;98848.28;;;3.28;86.85
41624;BME280;27319;50.306;18.926;2024-03-17T05:42:41;98846.97;;;3.34;85.85
41624;BME280;27319;50.306;18.926;2024-03-17T05:46:41;98870.47;;;3.28;86.07
41624;BME280;27319;50.306;18.926;2024-03-17T05:50:42;98863.63;;;3.39;86.19
41624;BME280;27319;50.306;18.926;2024-03-17T05:54:46;98868.91;;;3.27;84.70
41624;BME280;27319;50.306;18.926;2024-03-17T05:58:52;98863.72;;;3.51;83.21
41624;BME280;27319;50.306;18.926;2024-03-17T06:02:55;98868.81;;;3.44;82.28
41624;BME280;27319;50.306;18.926;2024-03-17T06:06:56;98867.88;;;3.40;82.64
41624;BME280;27319;50.306;18.926;2024-03-17T06:10:56;98857.31;;;3.44;83.06
41624;BME280;27319;50.306;18.926;2024-03-17T06:14:57;98875.75;;;3.66;81.63
41624;BME280;27319;50.306;18.926;2024-03-17T06:19:01;98881.59;;;3.60;81.00
41624;BME280;27319;50.306;18.926;2024-03-17T06:23:01;98888.41;;;3.78;80.10
41624;BME280;27319;50.306;18.926;2024-03-17T06:27:05;98896.50;;;3.90;80.69
41624;BME280;27319;50.306;18.926;2024-03-17T06:31:05;98890.69;;;3.88;80.00
41624;BME280;27319;50.306;18.926;2024-03-17T06:34:52;98897.66;;;3.80;79.90
41624;BME280;27319;50.306;18.926;2024-03-17T06:38:52;98891.81;;;3.87;80.17
41624;BME280;27319;50.306;18.926;2024-03-17T06:42:54;98885.06;;;3.81;79.18
41624;BME280;27319;50.306;18.926;2024-03-17T06:46:54;98883.44;;;3.88;80.22
41624;BME280;27319;50.306;18.926;2024-03-17T06:50:55;98897.44;;;3.94;80.47
41624;BME280;27319;50.306;18.926;2024-03-17T06:54:56;98900.53;;;3.96;79.61
41624;BME280;27319;50.306;18.926;2024-03-17T06:58:57;98904.59;;;4.02;79.91
41624;BME280;27319;50.306;18.926;2024-03-17T07:02:57;98903.41;;;4.12;80.63
41624;BME280;27319;50.306;18.926;2024-03-17T07:06:58;98895.44;;;4.03;79.72
41624;BME280;27319;50.306;18.926;2024-03-17T07:11:03;98898.31;;;3.98;79.98
41624;BME280;27319;50.306;18.926;2024-03-17T07:15:03;98912.53;;;4.31;78.89
41624;BME280;27319;50.306;18.926;2024-03-17T07:19:04;98902.91;;;4.30;78.13
41624;BME280;27319;50.306;18.926;2024-03-17T07:23:05;98898.19;;;3.94;77.60
41624;BME280;27319;50.306;18.926;2024-03-17T07:27:05;98908.19;;;4.06;78.13
41624;BME280;27319;50.306;18.926;2024-03-17T07:31:06;98919.50;;;4.12;77.17
41624;BME280;27319;50.306;18.926;2024-03-17T07:35:06;98909.63;;;4.36;75.84
41624;BME280;27319;50.306;18.926;2024-03-17T07:39:07;98917.00;;;4.27;74.77
41624;BME280;27319;50.306;18.926;2024-03-17T07:43:08;98924.56;;;4.25;76.42
41624;BME280;27319;50.306;18.926;2024-03-17T07:47:09;98929.09;;;4.46;74.26
41624;BME280;27319;50.306;18.926;2024-03-17T07:51:13;98933.44;;;4.38;75.51
41624;BME280;27319;50.306;18.926;2024-03-17T07:55:14;98928.44;;;4.16;74.23
41624;BME280;27319;50.306;18.926;2024-03-17T07:59:14;98924.56;;;4.25;73.12
41624;BME280;27319;50.306;18.926;2024-03-17T08:02:55;98913.59;;;4.63;72.32
41624;BME280;27319;50.306;18.926;2024-03-17T08:05:57;98924.06;;;4.89;71.91
41624;BME280;27319;50.306;18.926;2024-03-17T08:09:18;98907.75;;;4.94;70.89
41624;BME280;27319;50.306;18.926;2024-03-17T08:12:39;98913.00;;;4.91;71.10
41624;BME280;27319;50.306;18.926;2024-03-17T08:15:40;98917.38;;;4.95;71.50
41624;BME280;27319;50.306;18.926;2024-03-17T08:18:41;98905.97;;;5.10;70.24
41624;BME280;27319;50.306;18.926;2024-03-17T08:22:01;98906.59;;;4.71;70.76
41624;BME280;27319;50.306;18.926;2024-03-17T08:25:42;98903.47;;;5.05;69.69
41624;BME280;27319;50.306;18.926;2024-03-17T08:28:51;98907.97;;;5.13;65.67
41624;BME280;27319;50.306;18.926;2024-03-17T08:31:53;98902.16;;;4.99;63.78
41624;BME280;27319;50.306;18.926;2024-03-17T08:34:53;98893.66;;;5.09;63.98
41624;BME280;27319;50.306;18.926;2024-03-17T08:38:14;98900.34;;;5.28;65.13
41624;BME280;27319;50.306;18.926;2024-03-17T08:42:15;98894.72;;;5.57;63.88
41624;BME280;27319;50.306;18.926;2024-03-17T08:46:19;98884.69;;;5.42;64.80
41624;BME280;27319;50.306;18.926;2024-03-17T08:50:20;98884.69;;;5.42;64.51
41624;BME280;27319;50.306;18.926;2024-03-17T08:54:20;98889.16;;;5.26;64.33
41624;BME280;27319;50.306;18.926;2024-03-17T08:58:21;98888.72;;;5.24;64.26
41624;BME280;27319;50.306;18.926;2024-03-17T09:02:02;98897.53;;;5.48;63.20
41624;BME280;27319;50.306;18.926;2024-03-17T09:05:24;98899.00;;;5.46;62.78
41624;BME280;27319;50.306;18.926;2024-03-17T09:09:24;98888.69;;;5.48;63.34
41624;BME280;27319;50.306;18.926;2024-03-17T09:13:25;98884.84;;;5.61;63.99
41624;BME280;27319;50.306;18.926;2024-03-17T09:17:26;98885.50;;;5.95;62.35
41624;BME280;27319;50.306;18.926;2024-03-17T09:21:27;98890.31;;;5.77;61.84
41624;BME280;27319;50.306;18.926;2024-03-17T09:25:28;98890.94;;;5.46;62.75
41624;BME280;27319;50.306;18.926;2024-03-17T09:29:28;98886.31;;;5.71;61.67
41624;BME280;27319;50.306;18.926;2024-03-17T09:33:29;98894.44;;;5.86;60.93
41624;BME280;27319;50.306;18.926;2024-03-17T09:37:30;98892.88;;;5.85;60.06
41624;BME280;27319;50.306;18.926;2024-03-17T09:41:38;98885.78;;;6.05;60.12
41624;BME280;27319;50.306;18.926;2024-03-17T09:45:39;98894.66;;;6.49;58.39
41624;BME280;27319;50.306;18.926;2024-03-17T09:49:40;98886.16;;;6.79;58.35
41624;BME280;27319;50.306;18.926;2024-03-17T09:56:43;98882.50;;;6.87;58.73
41624;BME280;27319;50.306;18.926;2024-03-17T10:00:44;98882.63;;;6.31;61.28
41624;BME280;27319;50.306;18.926;2024-03-17T10:04:51;98880.25;;;6.89;58.10
41624;BME280;27319;50.306;18.926;2024-03-17T10:08:53;98870.50;;;7.00;58.08
41624;BME280;27319;50.306;18.926;2024-03-17T10:12:53;98870.59;;;6.88;59.42
41624;BME280;27319;50.306;18.926;2024-03-17T10:16:54;98856.13;;;6.17;62.34
41624;BME280;27319;50.306;18.926;2024-03-17T10:20:54;98868.78;;;5.89;60.58
41624;BME280;27319;50.306;18.926;2024-03-17T10:24:59;98870.91;;;5.96;61.75
41624;BME280;27319;50.306;18.926;2024-03-17T10:28:56;98862.97;;;6.58;59.29
41624;BME280;27319;50.306;18.926;2024-03-17T10:32:37;98877.44;;;6.38;59.40
41624;BME280;27319;50.306;18.926;2024-03-17T10:35:58;98863.00;;;6.15;59.21
41624;BME280;27319;50.306;18.926;2024-03-17T10:40:02;98857.72;;;5.90;59.21
41624;BME280;27319;50.306;18.926;2024-03-17T10:44:02;98859.72;;;6.37;58.62
41624;BME280;27319;50.306;18.926;2024-03-17T10:48:03;98858.00;;;6.29;57.30
41624;BME280;27319;50.306;18.926;2024-03-17T10:51:46;98840.03;;;7.11;57.86
41624;BME280;27319;50.306;18.926;2024-03-17T10:54:50;98847.34;;;6.80;56.45
41624;BME280;27319;50.306;18.926;2024-03-17T11:02:22;98843.63;;;8.12;53.78
41624;BME280;27319;50.306;18.926;2024-03-17T11:06:03;98851.34;;;7.36;55.71
41624;BME280;27319;50.306;18.926;2024-03-17T11:10:02;98844.13;;;8.37;55.49
41624;BME280;27319;50.306;18.926;2024-03-17T11:14:15;98838.22;;;8.12;53.26
41624;BME280;27319;50.306;18.926;2024-03-17T11:21:28;98819.75;;;7.72;51.48
41624;BME280;27319;50.306;18.926;2024-03-17T11:24:30;98825.88;;;8.98;50.96
41624;BME280;27319;50.306;18.926;2024-03-17T11:27:40;98822.88;;;9.07;49.56
41624;BME280;27319;50.306;18.926;2024-03-17T11:30:42;98819.81;;;8.59;49.49
41624;BME280;27319;50.306;18.926;2024-03-17T11:33:56;98834.78;;;7.54;52.22
41624;BME280;27319;50.306;18.926;2024-03-17T11:37:02;98824.41;;;7.56;52.33
41624;BME280;27319;50.306;18.926;2024-03-17T11:40:27;98828.94;;;7.90;51.77
41624;BME280;27319;50.306;18.926;2024-03-17T11:43:28;98821.88;;;7.28;54.37
41624;BME280;27319;50.306;18.926;2024-03-17T11:50:17;98808.44;;;7.47;55.69
41624;BME280;27319;50.306;18.926;2024-03-17T11:53:38;98805.34;;;7.45;54.12
41624;BME280;27319;50.306;18.926;2024-03-17T11:57:23;98803.78;;;7.44;52.41
41624;BME280;27319;50.306;18.926;2024-03-17T12:01:28;98802.69;;;7.29;54.21
41624;BME280;27319;50.306;18.926;2024-03-17T12:05:23;98799.69;;;8.11;52.23
41624;BME280;27319;50.306;18.926;2024-03-17T12:08:24;98794.97;;;8.99;52.02
41624;BME280;27319;50.306;18.926;2024-03-17T12:11:29;98783.66;;;8.64;51.73
41624;BME280;27319;50.306;18.926;2024-03-17T12:14:31;98788.28;;;8.41;52.79
41624;BME280;27319;50.306;18.926;2024-03-17T12:17:32;98790.06;;;7.91;54.96
41624;BME280;27319;50.306;18.926;2024-03-17T12:20:32;98794.81;;;8.62;53.62
41624;BME280;27319;50.306;18.926;2024-03-17T12:23:34;98795.19;;;9.40;49.63
41624;BME280;27319;50.306;18.926;2024-03-17T12:26:35;98786.38;;;8.64;51.65
41624;BME280;27319;50.306;18.926;2024-03-17T12:29:56;98777.53;;;8.93;50.05
41624;BME280;27319;50.306;18.926;2024-03-17T12:33:57;98773.31;;;9.85;48.33
41624;BME280;27319;50.306;18.926;2024-03-17T12:37:57;98767.03;;;8.88;49.42
41624;BME280;27319;50.306;18.926;2024-03-17T12:42:01;98771.88;;;9.62;50.77
41624;BME280;27319;50.306;18.926;2024-03-17T12:46:02;98773.28;;;10.19;48.03
41624;BME280;27319;50.306;18.926;2024-03-17T12:49:47;98765.53;;;9.80;47.65
41624;BME280;27319;50.306;18.926;2024-03-17T12:53:15;98767.97;;;10.30;45.33
41624;BME280;27319;50.306;18.926;2024-03-17T12:57:12;98770.06;;;10.10;45.77
41624;BME280;27319;50.306;18.926;2024-03-17T13:01:17;98759.53;;;10.89;45.19
41624;BME280;27319;50.306;18.926;2024-03-17T13:05:27;98759.63;;;11.07;43.46
41624;BME280;27319;50.306;18.926;2024-03-17T13:09:28;98770.47;;;10.49;42.98
41624;BME280;27319;50.306;18.926;2024-03-17T13:13:29;98752.25;;;11.80;43.69
41624;BME280;27319;50.306;18.926;2024-03-17T13:17:30;98756.66;;;11.30;42.75
41624;BME280;27319;50.306;18.926;2024-03-17T13:21:30;98757.34;;;10.54;42.47
41624;BME280;27319;50.306;18.926;2024-03-17T13:25:34;98733.31;;;12.47;44.12
41624;BME280;27319;50.306;18.926;2024-03-17T13:29:35;98736.38;;;11.89;45.48
41624;BME280;27319;50.306;18.926;2024-03-17T13:33:35;98732.34;;;11.48;43.62
41624;BME280;27319;50.306;18.926;2024-03-17T13:37:16;98730.84;;;11.64;43.87
41624;BME280;27319;50.306;18.926;2024-03-17T13:40:38;98723.84;;;11.53;43.76
41624;BME280;27319;50.306;18.926;2024-03-17T13:44:38;98728.66;;;12.02;43.40
41624;BME280;27319;50.306;18.926;2024-03-17T13:48:39;98744.16;;;12.08;41.05
41624;BME280;27319;50.306;18.926;2024-03-17T13:52:40;98726.88;;;11.33;41.93
41624;BME280;27319;50.306;18.926;2024-03-17T13:56:40;98720.91;;;12.32;41.68
41624;BME280;27319;50.306;18.926;2024-03-17T14:00:41;98720.91;;;12.57;41.30
41624;BME280;27319;50.306;18.926;2024-03-17T14:04:42;98720.09;;;12.03;40.56
41624;BME280;27319;50.306;18.926;2024-03-17T14:08:43;98726.28;;;11.93;42.23
41624;BME280;27319;50.306;18.926;2024-03-17T14:12:44;98719.34;;;12.24;41.63
41624;BME280;27319;50.306;18.926;2024-03-17T14:16:31;98725.09;;;11.80;42.50
41624;BME280;27319;50.306;18.926;2024-03-17T14:20:32;98720.75;;;11.58;42.55
41624;BME280;27319;50.306;18.926;2024-03-17T14:24:33;98715.47;;;12.29;41.61
41624;BME280;27319;50.306;18.926;2024-03-17T14:28:34;98710.78;;;11.87;41.37
41624;BME280;27319;50.306;18.926;2024-03-17T14:32:34;98724.06;;;11.12;42.29
41624;BME280;27319;50.306;18.926;2024-03-17T14:36:35;98709.16;;;10.78;42.67
41624;BME280;27319;50.306;18.926;2024-03-17T14:40:36;98711.66;;;10.05;43.64
41624;BME280;27319;50.306;18.926;2024-03-17T14:44:37;98703.78;;;9.89;43.64
41624;BME280;27319;50.306;18.926;2024-03-17T14:48:37;98704.94;;;9.88;45.32
41624;BME280;27319;50.306;18.926;2024-03-17T14:52:39;98713.53;;;9.61;42.77
41624;BME280;27319;50.306;18.926;2024-03-17T14:56:39;98716.84;;;9.80;42.53
41624;BME280;27319;50.306;18.926;2024-03-17T15:00:40;98705.53;;;9.04;43.03
41624;BME280;27319;50.306;18.926;2024-03-17T15:04:41;98715.69;;;9.15;44.22
41624;BME280;27319;50.306;18.926;2024-03-17T15:08:42;98721.09;;;8.85;45.37
41624;BME280;27319;50.306;18.926;2024-03-17T15:12:42;98718.38;;;8.85;47.52
41624;BME280;27319;50.306;18.926;2024-03-17T15:16:43;98717.66;;;8.88;47.91
41624;BME280;27319;50.306;18.926;2024-03-17T15:20:44;98724.47;;;8.29;48.52
41624;BME280;27319;50.306;18.926;2024-03-17T15:24:27;98717.38;;;8.21;49.65
41624;BME280;27319;50.306;18.926;2024-03-17T15:27:28;98709.53;;;8.12;50.33
41624;BME280;27319;50.306;18.926;2024-03-17T15:30:30;98713.50;;;8.41;50.82
41624;BME280;27319;50.306;18.926;2024-03-17T15:33:33;98713.44;;;8.15;49.10
41624;BME280;27319;50.306;18.926;2024-03-17T15:37:12;98713.00;;;7.90;49.88
41624;BME280;27319;50.306;18.926;2024-03-17T15:41:13;98708.34;;;7.87;52.86
41624;BME280;27319;50.306;18.926;2024-03-17T15:45:14;98707.72;;;7.97;51.94
41624;BME280;27319;50.306;18.926;2024-03-17T15:49:15;98719.16;;;7.48;51.06
41624;BME280;27319;50.306;18.926;2024-03-17T15:53:15;98720.66;;;7.46;53.21
41624;BME280;27319;50.306;18.926;2024-03-17T15:57:16;98710.50;;;7.20;52.00
41624;BME280;27319;50.306;18.926;2024-03-17T16:01:17;98718.31;;;7.25;55.58
41624;BME280;27319;50.306;18.926;2024-03-17T16:05:19;98721.38;;;7.04;54.38
41624;BME280;27319;50.306;18.926;2024-03-17T16:09:19;98721.72;;;7.03;54.43
41624;BME280;27319;50.306;18.926;2024-03-17T16:13:19;98728.38;;;7.09;54.31
41624;BME280;27319;50.306;18.926;2024-03-17T16:17:20;98726.47;;;7.09;54.53
41624;BME280;27319;50.306;18.926;2024-03-17T16:21:22;98730.09;;;6.82;55.26
41624;BME280;27319;50.306;18.926;2024-03-17T16:25:22;98732.59;;;6.91;56.40
41624;BME280;27319;50.306;18.926;2024-03-17T16:29:23;98735.22;;;6.71;54.59
41624;BME280;27319;50.306;18.926;2024-03-17T16:33:27;98738.91;;;6.63;54.58
41624;BME280;27319;50.306;18.926;2024-03-17T16:37:28;98741.34;;;6.37;56.52
41624;BME280;27319;50.306;18.926;2024-03-17T16:41:29;98748.75;;;6.40;55.62
41624;BME280;27319;50.306;18.926;2024-03-17T16:45:10;98745.19;;;6.36;56.86
41624;BME280;27319;50.306;18.926;2024-03-17T16:48:10;98743.88;;;6.30;57.78
41624;BME280;27319;50.306;18.926;2024-03-17T16:51:31;98744.41;;;6.20;57.80
41624;BME280;27319;50.306;18.926;2024-03-17T16:55:32;98747.28;;;6.27;58.41
41624;BME280;27319;50.306;18.926;2024-03-17T16:59:33;98753.78;;;6.26;57.58
41624;BME280;27319;50.306;18.926;2024-03-17T17:03:34;98756.03;;;6.24;57.20
41624;BME280;27319;50.306;18.926;2024-03-17T17:07:35;98754.88;;;6.09;58.75
41624;BME280;27319;50.306;18.926;2024-03-17T17:11:35;98753.59;;;6.19;57.97
41624;BME280;27319;50.306;18.926;2024-03-17T17:15:39;98765.13;;;6.04;58.24
41624;BME280;27319;50.306;18.926;2024-03-17T17:19:43;98766.88;;;6.12;57.07
41624;BME280;27319;50.306;18.926;2024-03-17T17:23:44;98767.19;;;5.95;56.38
41624;BME280;27319;50.306;18.926;2024-03-17T17:27:44;98767.19;;;5.95;57.70
41624;BME280;27319;50.306;18.926;2024-03-17T17:31:45;98767.28;;;5.70;57.71
41624;BME280;27319;50.306;18.926;2024-03-17T17:35:46;98764.09;;;5.80;57.06
41624;BME280;27319;50.306;18.926;2024-03-17T17:39:47;98775.59;;;5.65;57.14
41624;BME280;27319;50.306;18.926;2024-03-17T17:43:28;98770.56;;;5.64;57.15
41624;BME280;27319;50.306;18.926;2024-03-17T17:46:49;98766.22;;;5.59;56.85
41624;BME280;27319;50.306;18.926;2024-03-17T17:50:53;98768.34;;;5.53;56.35
41624;BME280;27319;50.306;18.926;2024-03-17T17:54:51;98773.00;;;5.69;57.51
41624;BME280;27319;50.306;18.926;2024-03-17T17:58:51;98773.50;;;5.59;57.20
41624;BME280;27319;50.306;18.926;2024-03-17T18:02:32;98765.56;;;5.50;58.45
41624;BME280;27319;50.306;18.926;2024-03-17T18:05:39;98768.44;;;5.57;58.33
41624;BME280;27319;50.306;18.926;2024-03-17T18:09:03;98761.50;;;5.56;58.62
41624;BME280;27319;50.306;18.926;2024-03-17T18:13:04;98765.25;;;5.39;59.53
41624;BME280;27319;50.306;18.926;2024-03-17T18:16:48;98759.56;;;5.41;59.98
41624;BME280;27319;50.306;18.926;2024-03-17T18:19:51;98763.16;;;5.33;59.02
41624;BME280;27319;50.306;18.926;2024-03-17T18:23:00;98758.94;;;5.32;58.81
41624;BME280;27319;50.306;18.926;2024-03-17T18:26:24;98760.09;;;5.06;60.23
41624;BME280;27319;50.306;18.926;2024-03-17T18:30:25;98761.75;;;5.23;59.09
41624;BME280;27319;50.306;18.926;2024-03-17T18:34:28;98749.94;;;5.00;60.83
41624;BME280;27319;50.306;18.926;2024-03-17T18:38:29;98756.34;;;4.83;59.84
41624;BME280;27319;50.306;18.926;2024-03-17T18:42:34;98748.72;;;4.85;61.86
41624;BME280;27319;50.306;18.926;2024-03-17T18:46:35;98768.44;;;4.77;61.30
41624;BME280;27319;50.306;18.926;2024-03-17T18:50:17;98759.47;;;4.85;61.89
41624;BME280;27319;50.306;18.926;2024-03-17T18:53:38;98751.91;;;4.63;61.99
41624;BME280;27319;50.306;18.926;2024-03-17T18:57:39;98752.34;;;4.77;62.55
41624;BME280;27319;50.306;18.926;2024-03-17T19:01:40;98749.53;;;4.61;63.34
41624;BME280;27319;50.306;18.926;2024-03-17T19:05:40;98751.44;;;4.61;63.45
41624;BME280;27319;50.306;18.926;2024-03-17T19:09:41;98750.09;;;4.55;63.49
41624;BME280;27319;50.306;18.926;2024-03-17T19:13:02;98756.03;;;4.60;64.57
41624;BME280;27319;50.306;18.926;2024-03-17T19:17:03;98747.63;;;4.74;64.08
41624;BME280;27319;50.306;18.926;2024-03-17T19:21:10;98752.13;;;4.70;64.96
41624;BME280;27319;50.306;18.926;2024-03-17T19:25:00;98766.63;;;4.45;65.98
41624;BME280;27319;50.306;18.926;2024-03-17T19:28:21;98764.31;;;4.55;66.36
41624;BME280;27319;50.306;18.926;2024-03-17T19:32:02;98770.19;;;4.36;66.95
41624;BME280;27319;50.306;18.926;2024-03-17T19:35:23;98765.72;;;4.16;68.46
41624;BME280;27319;50.306;18.926;2024-03-17T19:39:27;98770.66;;;4.26;68.53
41624;BME280;27319;50.306;18.926;2024-03-17T19:43:28;98778.78;;;4.18;68.56
41624;BME280;27319;50.306;18.926;2024-03-17T19:47:28;98788.19;;;4.36;68.07
41624;BME280;27319;50.306;18.926;2024-03-17T19:51:29;98788.16;;;4.24;67.81
41624;BME280;27319;50.306;18.926;2024-03-17T19:55:30;98777.56;;;4.27;67.61
41624;BME280;27319;50.306;18.926;2024-03-17T19:59:31;98774.75;;;4.24;68.09
41624;BME280;27319;50.306;18.926;2024-03-17T20:03:32;98771.31;;;4.23;67.80
41624;BME280;27319;50.306;18.926;2024-03-17T20:07:32;98774.31;;;4.22;66.80
41624;BME280;27319;50.306;18.926;2024-03-17T20:11:28;98770.41;;;4.07;66.63
41624;BME280;27319;50.306;18.926;2024-03-17T20:14:29;98768.75;;;4.15;67.09
41624;BME280;27319;50.306;18.926;2024-03-17T20:17:30;98761.03;;;4.13;66.96
41624;BME280;27319;50.306;18.926;2024-03-17T20:20:32;98761.69;;;4.10;65.46
41624;BME280;27319;50.306;18.926;2024-03-17T20:23:53;98752.53;;;4.11;65.76
41624;BME280;27319;50.306;18.926;2024-03-17T20:27:54;98756.28;;;3.86;65.54